Griddlers

Aller directement au puzzle n°

Jeux et Jouets: Jeux: Jeux de Rôle: Dragon Quest

Sélectionnez les puzzles par:
Résolu le Question Trier par
Montrer plus de filtres >>>
Résultat: 65 sur 65
Puzzles par page
Page de 4
ID Description Auteur Date Taille Points Popularité Temps Moyen Résolu le
126829 You May be a Dragonborn, But... rwkasten 19/08/12 40x50x2 f-4 10 849 0:24:56
126828 You May be a Dragonborn, But... rwkasten 19/08/12 40x50x2 f-4 24 282 0:18:11
126827 You May be a Dragonborn, But... rwkasten 19/08/12 40x50x2 f-4 15 523 0:29:35
126826 You May be a Dragonborn, But... rwkasten 19/08/12 40x50x2 f-4 1 604 77,78% 0:08:21
106540 DQM1 - BoxSlime bladewinters 10/03/11 21x24x4 f 5 817 64,84% 0:10:35
106539 DQM1 - SlimeBorg bladewinters 10/03/11 25x22x4 f 15 714 60,71% 0:17:05
106538 DQM2 - AngelSlime bladewinters 10/03/11 35x19x6 f 21 205 70,73% 0:17:48
106537 DQM2 - TropicGel bladewinters 10/03/11 30x29x6 f 29 741 75,00% 0:26:03
106536 DQM2 - MimeSlime bladewinters 10/03/11 36x34x5 f 37 510 73,75% 0:42:23
106535 DQM2 - PearlGel bladewinters 10/03/11 35x29x7 f 40 408 73,08% 0:23:35
106518 DQM1 - Slabbit bladewinters 09/03/11 27x27x4 f 23 458 69,83% 0:18:48
106517 DQM1 - FangSlime bladewinters 09/03/11 27x28x5 f 41 300 63,64% 0:24:22
106516 DQM1 - SpotKing bladewinters 09/03/11 37x42x4 f 47 730 77,50% 0:36:12
106515 DQM1 - KingSlime bladewinters 09/03/11 37x42x5 f 79 459 84,09% 0:28:26
106514 DQM1 - GoldSlime bladewinters 09/03/11 45x47x5 f 182 677 85,00% 0:56:05
106495 DQM1 - SpotSlime bladewinters 08/03/11 20x20x5 f 5 214 62,77% 0:08:18
106494 DQM1 - BubbleSlime bladewinters 08/03/11 28x21x5 f 12 301 67,68% 0:12:25
106493 DQM1 - SlimeSnail bladewinters 08/03/11 25x20x5 f 18 852 69,45% 0:16:38
106492 DQM1 - SlimeKnight bladewinters 08/03/11 22x35x4 f 35 644 67,10% 0:43:22
106491 DQM1 - DrakSlime bladewinters 08/03/11 35x25x5 f 36 541 57,89% 0:29:40
Résultat: 65 sur 65
Puzzles par page
Page de 4